ADDS METAR Data INFO
IDs: Format: Raw Decoded Include TAF

Data at: 0704 UTC 19 Oct 2017

KGGP 190655Z AUTO 20007KT 10SM CLR 09/06 A3013 RMK AO2
KGGP 190635Z AUTO 20007KT 10SM CLR 08/06 A3013 RMK AO2
KGGP 190615Z AUTO 19008KT 10SM CLR 08/06 A3013 RMK AO2
KGGP 190555Z AUTO 20006KT 10SM CLR 08/06 A3014 RMK AO2
KGGP 190535Z AUTO 20006KT 10SM CLR 08/06 A3014 RMK AO2
KGGP 190515Z AUTO 19007KT 10SM CLR 08/06 A3013 RMK AO2
KGGP 190455Z AUTO 18007KT 10SM CLR 08/05 A3013 RMK AO2
KGGP 190435Z AUTO 17007KT 10SM CLR 08/06 A3014 RMK AO2
KGGP 190415Z AUTO 19007KT 10SM CLR 08/06 A3014 RMK AO2
KGGP 190355Z AUTO 19007KT 10SM CLR 07/05 A3014 RMK AO2
KGGP 190335Z AUTO 20007KT 10SM CLR 08/05 A3015 RMK AO2
KGGP 190315Z AUTO 19005KT 10SM CLR 08/05 A3014 RMK AO2
KGGP 190255Z AUTO 19007KT 10SM CLR 08/05 A3014 RMK AO2
KGGP 190235Z AUTO 19006KT 10SM CLR 08/05 A3014 RMK AO2
KGGP 190215Z AUTO 19006KT 10SM CLR 10/06 A3014 RMK AO2
KGGP 190155Z AUTO 18006KT 10SM CLR 10/06 A3013 RMK AO2
KGGP 190135Z AUTO 18006KT 10SM CLR 10/06 A3013 RMK AO2
KGGP 190115Z AUTO 18006KT 10SM CLR 10/05 A3013 RMK AO2
KGGP 190055Z AUTO 18007KT 10SM CLR 10/05 A3013 RMK AO2
KGGP 190035Z AUTO 19006KT 10SM CLR 10/05 A3014 RMK AO2
KGGP 190015Z AUTO 19006KT 10SM CLR 11/05 A3014 RMK AO2
KGGP 182355Z AUTO 19006KT 10SM CLR 11/05 A3014 RMK AO2
KGGP 182335Z AUTO 19006KT 10SM CLR 12/05 A3013 RMK AO2
KGGP 182315Z AUTO 19006KT 10SM CLR 13/05 A3013 RMK AO2
KGGP 182255Z AUTO 20006KT 10SM CLR 15/06 A3013 RMK AO2
KGGP 182230Z AUTO 20007KT 10SM CLR 17/05 A3013 RMK AO2
KGGP 182215Z AUTO 19009KT 10SM CLR 18/05 A3013 RMK AO2
KGGP 182155Z AUTO 20010KT 10SM CLR 19/04 A3014 RMK AO2
KGGP 182135Z AUTO 20013KT 10SM CLR 20/04 A3014 RMK AO2
KGGP 182115Z AUTO 19013KT 10SM CLR 20/04 A3014 RMK AO2
KGGP 182055Z AUTO 20010KT 10SM CLR 20/04 A3014 RMK AO2
KGGP 182035Z AUTO 21013KT 10SM CLR 20/04 A3015 RMK AO2
KGGP 182015Z AUTO 19012G16KT 10SM CLR 20/04 A3016 RMK AO2
KGGP 181955Z AUTO 18015G23KT 10SM CLR 20/04 A3016 RMK AO2
KGGP 181935Z AUTO 18014KT 10SM CLR 20/04 A3016 RMK AO2
KGGP 181915Z AUTO 20010G16KT 10SM CLR 20/05 A3017 RMK AO2
KGGP 181855Z AUTO 18013G19KT 10SM CLR 19/05 A3018 RMK AO2
KGGP 181835Z AUTO 20014G18KT 10SM CLR 19/05 A3019 RMK AO2
KGGP 181815Z AUTO 20010KT 10SM CLR 19/05 A3020 RMK AO2
KGGP 181755Z AUTO 19012G17KT 10SM CLR 18/05 A3021 RMK AO2
KGGP 181735Z AUTO 18010G17KT 10SM CLR 18/05 A3022 RMK AO2
KGGP 181715Z AUTO 20011G16KT 10SM CLR 18/06 A3022 RMK AO2
KGGP 181655Z AUTO 19011KT 10SM CLR 17/06 A3024 RMK AO2
KGGP 181635Z AUTO 22012KT 10SM CLR 17/06 A3025 RMK AO2
KGGP 181615Z AUTO 20012G18KT 10SM CLR 17/06 A3026 RMK AO2
KGGP 181555Z AUTO 20011KT 10SM CLR 16/06 A3026 RMK AO2
KGGP 181535Z AUTO 19008KT 10SM CLR 16/06 A3026 RMK AO2
KGGP 181515Z AUTO 20008KT 10SM CLR 15/06 A3027 RMK AO2
KGGP 181455Z AUTO 21008KT 10SM CLR 14/07 A3027 RMK AO2
KGGP 181435Z AUTO 21009KT 10SM CLR 13/07 A3027 RMK AO2
KGGP 181415Z AUTO 18009KT 10SM CLR 12/07 A3027 RMK AO2
KGGP 181355Z AUTO 19007KT 10SM CLR 11/06 A3027 RMK AO2
KGGP 181335Z AUTO 17006KT 10SM CLR 10/06 A3027 RMK AO2
KGGP 181315Z AUTO 17005KT 10SM CLR 08/06 A3027 RMK AO2
KGGP 181255Z AUTO 16004KT 10SM CLR 06/05 A3026 RMK AO2
KGGP 181235Z AUTO 15004KT 10SM CLR 04/02 A3026 RMK AO2
KGGP 181215Z AUTO 15005KT 10SM CLR 03/02 A3026 RMK AO2
KGGP 181155Z AUTO 15005KT 10SM CLR 04/02 A3026 RMK AO2
KGGP 181135Z AUTO 15004KT 10SM CLR 04/02 A3026 RMK AO2
KGGP 181115Z AUTO 16003KT 10SM CLR 04/02 A3026 RMK AO2
KGGP 181055Z AUTO 16003KT 10SM CLR 04/02 A3026 RMK AO2
KGGP 181035Z AUTO 17003KT 10SM CLR 04/02 A3026 RMK AO2
KGGP 181015Z AUTO 16004KT 10SM CLR 05/02 A3025 RMK AO2
KGGP 180955Z AUTO 00000KT 10SM CLR 05/02 A3025 RMK AO2
KGGP 180935Z AUTO 16003KT 10SM CLR 04/02 A3025 RMK AO2
KGGP 180915Z AUTO 17003KT 10SM CLR 05/02 A3024 RMK AO2
KGGP 180855Z AUTO 00000KT 10SM CLR 05/02 A3024 RMK AO2
KGGP 180835Z AUTO 16004KT 10SM CLR 05/02 A3024 RMK AO2
KGGP 180815Z AUTO 00000KT 10SM CLR 04/02 A3023 RMK AO2
KGGP 180755Z AUTO 00000KT 10SM CLR 05/03 A3023 RMK AO2
KGGP 180735Z AUTO 18004KT 10SM CLR 05/02 A3023 RMK AO2
KGGP 180715Z AUTO 17005KT 10SM CLR 06/03 A3023 RMK AO2
KGGP 180655Z AUTO 17005KT 10SM CLR 06/03 A3023 RMK AO2
KGGP 180635Z AUTO 17005KT 10SM CLR 04/02 A3023 RMK AO2
KGGP 180615Z AUTO 17004KT 10SM CLR 06/03 A3023 RMK AO2
KGGP 180555Z AUTO 17003KT 10SM CLR 06/03 A3024 RMK AO2
KGGP 180535Z AUTO 17004KT 10SM CLR 05/02 A3024 RMK AO2
KGGP 180515Z AUTO 16004KT 10SM CLR 06/03 A3024 RMK AO2
KGGP 180455Z AUTO 17003KT 10SM CLR 06/03 A3024 RMK AO2
KGGP 180435Z AUTO 17003KT 10SM CLR 06/03 A3024 RMK AO2
KGGP 180415Z AUTO 18005KT 10SM CLR 07/03 A3024 RMK AO2
KGGP 180355Z AUTO 19005KT 10SM CLR 07/03 A3024 RMK AO2
KGGP 180335Z AUTO 19005KT 10SM CLR 07/03 A3024 RMK AO2
KGGP 180315Z AUTO 19006KT 10SM CLR 07/03 A3024 RMK AO2
KGGP 180255Z AUTO 20005KT 10SM CLR 08/04 A3024 RMK AO2
KGGP 180235Z AUTO 19006KT 10SM CLR 08/04 A3024 RMK AO2
KGGP 180215Z AUTO 19007KT 10SM CLR 08/04 A3023 RMK AO2
KGGP 180155Z AUTO 20006KT 10SM CLR 08/04 A3023 RMK AO2
KGGP 180135Z AUTO 20005KT 10SM CLR 09/04 A3022 RMK AO2
KGGP 180115Z AUTO 19008KT 10SM CLR 09/04 A3022 RMK AO2
KGGP 180055Z AUTO 19006KT 10SM CLR 10/04 A3022 RMK AO2
KGGP 180035Z AUTO 19007KT 10SM CLR 10/04 A3022 RMK AO2
KGGP 180015Z AUTO 19005KT 10SM CLR 10/04 A3022 RMK AO2
KGGP 172355Z AUTO 19006KT 10SM CLR 10/05 A3022 RMK AO2
KGGP 172335Z AUTO 19006KT 10SM CLR 11/04 A3021 RMK AO2
KGGP 172315Z AUTO 20005KT 10SM CLR 13/04 A3021 RMK AO2
KGGP 172255Z AUTO 20006KT 10SM CLR 15/05 A3021 RMK AO2
KGGP 172235Z AUTO 21008KT 10SM CLR 16/04 A3021 RMK AO2
KGGP 172215Z AUTO 22009KT 10SM CLR 17/03 A3021 RMK AO2
KGGP 172155Z AUTO 22009KT 10SM CLR 17/03 A3021 RMK AO2
KGGP 172135Z AUTO 23010KT 10SM CLR 18/03 A3021 RMK AO2
KGGP 172115Z AUTO 22010KT 10SM CLR 18/03 A3021 RMK AO2
KGGP 172055Z AUTO 22010G15KT 10SM CLR 18/04 A3022 RMK AO2
KGGP 172035Z AUTO 23012KT 10SM CLR 18/04 A3022 RMK AO2
KGGP 172015Z AUTO 22012G15KT 10SM CLR 19/04 A3023 RMK AO2
KGGP 171955Z AUTO 22013G18KT 10SM CLR 18/03 A3023 RMK AO2
KGGP 171935Z AUTO 24013KT 10SM CLR 19/05 A3024 RMK AO2
KGGP 171915Z AUTO 24013KT 10SM CLR 18/04 A3024 RMK AO2